METAR Data
IDs: Format: Raw Decoded Include TAF

Data at: 1733 UTC 23 Jan 2019

KWVI 231653Z AUTO 00000KT 10SM CLR 06/02 A3043 RMK AO2 SLP306 T00610022
KWVI 231553Z AUTO 00000KT 10SM CLR 03/01 A3043 RMK AO2 SLP306 T00330011
KWVI 231453Z AUTO 00000KT 10SM CLR 03/01 A3042 RMK AO2 SLP302 T00280011 53003 $
KWVI 231353Z AUTO 00000KT 10SM CLR 02/00 A3041 RMK AO2 SLP299 T00170000 $
KWVI 231253Z AUTO 00000KT 10SM CLR 03/01 A3042 RMK AO2 SLP301 T00330011 $
KWVI 231153Z AUTO 00000KT 10SM CLR 03/02 A3041 RMK AO2 SLP299 T00330017 10061 20017 58007 $
KWVI 231053Z AUTO 34005KT 10SM CLR 04/01 A3042 RMK AO2 SLP301 T00440011 $
KWVI 230953Z AUTO VRB03KT 10SM CLR 05/02 A3042 RMK AO2 SLP302 T00500017 $
KWVI 230853Z AUTO 33005KT 10SM CLR 04/02 A3043 RMK AO2 SLP304 T00440022 50004 $
KWVI 230753Z AUTO 34004KT 10SM CLR 06/02 A3043 RMK AO2 SLP305 T00560022 401560028 $
KWVI 230653Z AUTO 33004KT 10SM CLR 06/02 A3043 RMK AO2 SLP305 T00560022 $
KWVI 230553Z AUTO 35005KT 10SM CLR 06/03 A3042 RMK AO2 SLP301 T00610033 10139 20061 53009 $
KWVI 230453Z AUTO 34004KT 10SM CLR 07/03 A3041 RMK AO2 SLP298 T00670033 $
KWVI 230353Z AUTO 32004KT 10SM CLR 08/04 A3040 RMK AO2 SLP295 T00780039 $
KWVI 230253Z AUTO 34004KT 10SM CLR 09/05 A3039 RMK AO2 SLP292 T00890050 $
KWVI 230153Z AUTO 00000KT 10SM CLR 10/04 A3038 RMK AO2 SLP288 T01000039 $
KWVI 230053Z AUTO 00000KT 10SM CLR 12/06 A3037 RMK AO2 SLP285 T01220056 $
KWVI 222353Z AUTO 23005KT 10SM CLR 14/04 A3036 RMK AO2 SLP282 T01390044 10156 20089 55004
KWVI 222253Z AUTO 10SM CLR 15/03 A3036 RMK AO2 SLP280 T01500028
KWVI 222153Z AUTO 25006KT 10SM CLR 15/02 A3036 RMK AO2 SLP279 T01500017
KWVI 222053Z AUTO 20003KT 10SM CLR 14/01 A3037 RMK AO2 SLP285 T01440011 58009
KWVI 221953Z AUTO 22004KT 10SM CLR 13/02 A3039 RMK AO2 SLP291 T01280022
KWVI 221853Z AUTO 00000KT 10SM CLR 12/04 A3041 RMK AO2 SLP297 T01170039
KWVI 221753Z AUTO 00000KT 10SM CLR 09/04 A3040 RMK AO2 SLP296 T00890039 10089 20028 51021
No TAF found for KWVI

KSNS 231653Z 14008KT 10SM CLR 06/01 A3044 RMK AO2 SLP318 T00610011
KSNS 231553Z 14007KT 10SM CLR 04/00 A3043 RMK AO2 SLP316 T00390000
KSNS 231453Z 12009KT 10SM CLR 03/00 A3042 RMK AO2 SLP310 T00280000 53002
KSNS 231353Z AUTO 14006KT 10SM CLR 03/00 A3041 RMK AO2 SLP309 T00330000
KSNS 231253Z AUTO 13006KT 10SM CLR 04/00 A3041 RMK AO2 SLP307 T00390000
KSNS 231153Z AUTO 13006KT 10SM CLR 04/01 A3041 RMK AO2 SLP307 T00390006 10078 20039 56006
KSNS 231053Z AUTO 14008KT 10SM CLR 04/01 A3041 RMK AO2 SLP308 T00440006
KSNS 230953Z AUTO 12006KT 10SM CLR 04/01 A3042 RMK AO2 SLP310 T00440011
KSNS 230853Z AUTO 15003KT 10SM CLR 05/01 A3043 RMK AO2 SLP313 T00500011 53005
KSNS 230753Z AUTO 15006KT 10SM CLR 06/02 A3042 RMK AO2 SLP310 T00560017 401670033
KSNS 230653Z AUTO 16005KT 10SM CLR 06/02 A3042 RMK AO2 SLP310 T00560022
KSNS 230553Z AUTO 05003KT 10SM CLR 07/03 A3041 RMK AO2 SLP308 T00720028 10161 20072 53010
KSNS 230453Z AUTO 00000KT 10SM CLR 09/03 A3040 RMK AO2 SLP305 T00890028
KSNS 230353Z AUTO 00000KT 10SM CLR 09/04 A3038 RMK AO2 SLP299 T00940039
KSNS 230253Z AUTO 00000KT 10SM CLR 11/03 A3038 RMK AO2 SLP297 T01060033 51008
KSNS 230153Z 33004KT 10SM CLR 13/02 A3037 RMK AO2 SLP295 T01280017
KSNS 230053Z 32007KT 10SM CLR 14/01 A3037 RMK AO2 SLP292 T01440011
KSNS 222353Z 03006KT 10SM CLR 16/00 A3036 RMK AO2 SLP289 T01560000 10167 20083 55005
KSNS 222253Z 35009KT 10SM CLR 16/M03 A3035 RMK AO2 SLP285 T01611028
KSNS 222153Z 02005KT 10SM CLR 16/M03 A3035 RMK AO2 SLP287 T01561028
KSNS 222053Z 00000KT 10SM CLR 15/M02 A3037 RMK AO2 SLP294 T01501017 58008
KSNS 221953Z 33008KT 10SM CLR 14/M02 A3039 RMK AO2 SLP300 T01391017
KSNS 221853Z 00000KT 10SM CLR 11/04 A3040 RMK AO2 SLP304 T01110044
KSNS 221753Z 00000KT 10SM CLR 08/04 A3040 RMK AO2 SLP304 T00780039 10089 20033 53016

KSNS 231720Z 2318/2418 14008KT P6SM SKC
  FM232100 30007KT P6SM SKC
  FM240300 00000KT P6SM SKC
  FM240900 10003KT P6SM SKC


KMRY 231654Z 08007KT 10SM CLR 10/M02 A3042 RMK AO2 SLP314 T01001017
KMRY 231554Z 08005KT 10SM CLR 06/M02 A3042 RMK AO2 SLP314 T00561022
KMRY 231454Z 09005KT 10SM CLR 04/M02 A3041 RMK AO2 SLP311 T00391022 53004
KMRY 231354Z 08005KT 10SM CLR 06/M03 A3040 RMK AO2 SLP309 T00561033
KMRY 231254Z AUTO 08005KT 10SM CLR 04/M03 A3040 RMK AO2 SLP308 T00441028
KMRY 231154Z AUTO 10005KT 10SM CLR 05/M02 A3040 RMK AO2 SLP307 T00501017 10078 20044 56007
KMRY 231054Z AUTO 06005KT 10SM CLR 06/M02 A3040 RMK AO2 SLP307 T00611022
KMRY 230954Z AUTO 09009KT 10SM CLR 07/M02 A3040 RMK AO2 SLP309 T00671017
KMRY 230854Z AUTO 10005KT 10SM CLR 05/00 A3042 RMK AO2 SLP314 T00500000 50004
KMRY 230754Z AUTO 00000KT 10SM CLR 06/M01 A3042 RMK AO2 SLP315 T00611006 401560044
KMRY 230654Z AUTO 09010KT 10SM CLR 08/00 A3041 RMK AO2 SLP310 T00780000
KMRY 230554Z AUTO 09009KT 10SM CLR 07/01 A3041 RMK AO2 SLP310 T00670006 10144 20067 51009
KMRY 230454Z 10005KT 10SM CLR 07/01 A3040 RMK AO2 SLP308 T00720011
KMRY 230354Z 00000KT 10SM CLR 08/02 A3038 RMK AO2 SLP302 T00780017
KMRY 230254Z 09005KT 10SM CLR 08/02 A3038 RMK AO2 SLP300 T00830022 50003
KMRY 230154Z 12003KT 10SM CLR 10/03 A3038 RMK AO2 SLP301 T01000028
KMRY 230054Z 00000KT 10SM CLR 13/02 A3037 RMK AO2 SLP298 T01330017
KMRY 222354Z 29005KT 10SM CLR 14/02 A3037 RMK AO2 SLP297 T01390017 10156 20111 55000
KMRY 222254Z 28006KT 10SM CLR 14/01 A3036 RMK AO2 SLP294 T01440006
KMRY 222154Z VRB05KT 10SM CLR 15/M01 A3036 RMK AO2 SLP294 T01501011
KMRY 222054Z 36006KT 10SM CLR 15/M03 A3037 RMK AO2 SLP297 T01501033 58008
KMRY 221954Z 04007KT 10SM CLR 13/M03 A3039 RMK AO2 SLP305 T01331028
KMRY 221854Z 02009KT 10SM CLR 13/M02 A3040 RMK AO2 SLP309 T01281022
KMRY 221754Z 07005KT 10SM CLR 11/M01 A3039 RMK AO2 SLP306 T01111006 10111 20044 53017

KMRY 231720Z 2318/2418 09005KT P6SM SKC
  FM232000 32006KT P6SM SKC
  FM240300 09003KT P6SM SKC


KSJC 231653Z 00000KT 10SM FEW090 08/01 A3045 RMK AO2 SLP309 T00780011
KSJC 231553Z 00000KT 10SM FEW090 05/01 A3044 RMK AO2 SLP307 T00500006
KSJC 231453Z 00000KT 10SM FEW090 04/00 A3044 RMK AO2 SLP305 T00440000 53005
KSJC 231353Z 14003KT 10SM CLR 04/00 A3042 RMK AO2 SLP300 T00440000
KSJC 231253Z AUTO 11003KT 10SM CLR 05/00 A3042 RMK AO2 SLP301 T00500000
KSJC 231153Z AUTO 00000KT 10SM CLR 04/01 A3042 RMK AO2 SLP301 T00440006 10089 20033 58005
KSJC 231053Z AUTO 14003KT 10SM CLR 04/00 A3044 RMK AO2 SLP305 T00390000
KSJC 230953Z AUTO 00000KT 10SM CLR 06/01 A3043 RMK AO2 SLP304 T00610006
KSJC 230853Z AUTO 19003KT 10SM CLR 06/01 A3044 RMK AO2 SLP306 T00610011 51011
KSJC 230753Z 00000KT 10SM CLR 07/02 A3043 RMK AO2 SLP304 LAST T00720017 401500050
KSJC 230653Z 16004KT 10SM FEW085 08/01 A3042 RMK AO2 SLP300 T00830011
KSJC 230553Z 00000KT 10SM FEW085 FEW200 08/01 A3040 RMK AO2 SLP295 T00830011 10144 20083 50006
KSJC 230453Z 00000KT 10SM FEW100 SCT200 09/01 A3041 RMK AO2 SLP296 T00890011
KSJC 230353Z 00000KT 10SM FEW085 FEW160 11/01 A3039 RMK AO2 SLP291 T01110006
KSJC 230253Z 24003KT 10SM FEW080 SCT100 13/M01 A3039 RMK AO2 SLP289 T01281011 53004
KSJC 230153Z 27003KT 10SM FEW080 SCT100 BKN160 13/M01 A3037 RMK AO2 SLP284 T01281011
KSJC 230053Z 32006KT 10SM FEW080 SCT100 BKN160 13/00 A3037 RMK AO2 SLP284 T01330000
KSJC 222353Z 33007KT 10SM FEW080 SCT100 BKN160 14/01 A3037 RMK AO2 SLP284 T01440006 10150 20106 55004
KSJC 222253Z 00000KT 10SM FEW080 SCT100 BKN160 15/M01 A3037 RMK AO2 SLP284 T01501011
KSJC 222153Z 29009KT 10SM FEW080 SCT100 BKN160 14/00 A3037 RMK AO2 SLP283 T01440000
KSJC 222053Z 32007KT 10SM FEW080 BKN110 BKN150 14/01 A3038 RMK AO2 SLP288 T01390006 58012
KSJC 221953Z 30009KT 10SM FEW080 BKN110 OVC150 13/01 A3040 RMK AO2 SLP295 T01280006
KSJC 221853Z 32011KT 10SM FEW070 BKN100 OVC150 12/01 A3042 RMK AO2 SLP301 T01220006
KSJC 221753Z 33010KT 10SM FEW070 BKN100 OVC150 11/02 A3042 RMK AO2 SLP300 T01060017 10111 20050 53017

KSJC 231720Z 2318/2418 VRB03KT P6SM SKC
  FM231900 31006KT P6SM SCT200
  FM240400 00000KT P6SM FEW200


KSFO 231656Z 00000KT 10SM FEW200 09/06 A3044 RMK AO2 SLP308 T00940061 $
KSFO 231556Z 00000KT 10SM FEW200 08/04 A3043 RMK AO2 SLP305 T00780039 $
KSFO 231456Z 18003KT 10SM FEW200 08/02 A3043 RMK AO2 SLP304 T00780022 53005 $
KSFO 231356Z 00000KT 10SM CLR 07/01 A3041 RMK AO2 SLP298 T00720011 $
KSFO 231256Z 00000KT 10SM CLR 07/01 A3042 RMK AO2 SLP299 T00720006 $
KSFO 231156Z 23003KT 10SM CLR 08/02 A3041 RMK AO2 SLP299 T00830017 10106 20083 58004 $
KSFO 231056Z 00000KT 10SM CLR 09/01 A3042 RMK AO2 SLP301 T00940011 $
KSFO 230956Z 19003KT 10SM CLR 10/02 A3042 RMK AO2 SLP301 T01000017 $
KSFO 230856Z 22003KT 10SM CLR 10/01 A3043 RMK AO2 SLP303 T01000011 50007 $
KSFO 230756Z 00000KT 10SM FEW200 10/01 A3043 RMK AO2 SLP303 T01000006 401560061 $
KSFO 230656Z 25003KT 10SM FEW200 10/01 A3041 RMK AO2 SLP299 T01000006 $
KSFO 230556Z 00000KT 10SM FEW200 11/01 A3041 RMK AO2 SLP296 T01060006 10156 20106 51010 $
KSFO 230456Z 16003KT 10SM FEW200 11/01 A3040 RMK AO2 SLP294 T01110011 $
KSFO 230356Z 00000KT 10SM FEW070 SCT200 12/02 A3040 RMK AO2 SLP294 T01170022 $
KSFO 230256Z 27003KT 10SM FEW060 SCT200 13/03 A3038 RMK AO2 SLP286 T01280033 53001 $
KSFO 230156Z 30005KT 10SM FEW060 SCT200 14/03 A3037 RMK AO2 SLP285 T01390028 $
KSFO 230056Z 04003KT 10SM SCT200 15/01 A3036 RMK AO2 SLP282 T01500011 $
KSFO 222356Z 09003KT 10SM SCT200 16/M01 A3037 RMK AO2 SLP284 T01561011 55005 $
KSFO 222256Z 11003KT 10SM SCT200 16/M01 A3036 RMK AO2 SLP282 T01561006 $
KSFO 222156Z 00000KT 10SM BKN200 15/M02 A3037 RMK AO2 SLP284 T01501022 $
KSFO 222056Z 00000KT 10SM BKN200 12/M01 A3039 RMK AO2 SLP290 T01171006 58013 $
KSFO 221956Z 00000KT 10SM SCT180 BKN200 12/00 A3041 RMK AO2 SLP296 T01220000 $
KSFO 221856Z 36004KT 10SM SCT180 BKN200 12/M01 A3042 RMK AO2 SLP301 T01171006 $
KSFO 221756Z 01006KT 10SM SCT180 BKN200 08/01 A3043 RMK AO2 SLP303 T00780006 53018 $

KSFO 231720Z 2318/2424 VRB03KT P6SM FEW200
  FM232300 30008KT P6SM SCT200
  FM240600 31004KT P6SM SCT200
  FM241500 00000KT P6SM FEW200


KHAF 231715Z AUTO 15003KT 6SM HZ CLR 11/05 A3043 RMK AO2
KHAF 231700Z AUTO 00000KT 5SM HZ CLR 10/05 A3043 RMK AO2
KHAF 231655Z AUTO 00000KT 9SM CLR 09/05 A3043 RMK AO2
KHAF 231635Z AUTO 00000KT 10SM CLR 07/04 A3043 RMK AO2
KHAF 231615Z AUTO 00000KT 10SM CLR 05/03 A3043 RMK AO2
KHAF 231600Z AUTO 00000KT 10SM CLR 04/02 A3042 RMK AO2
KHAF 231555Z AUTO 03003KT 10SM CLR 04/02 A3042 RMK AO2
KHAF 231540Z AUTO 04003KT 10SM CLR 03/01 A3042 RMK AO2
KHAF 231535Z AUTO 00000KT 10SM CLR 04/01 A3042 RMK AO2
KHAF 231515Z AUTO 00000KT 10SM CLR 03/01 A3042 RMK AO2
KHAF 231455Z AUTO 00000KT 10SM CLR 03/01 A3042 RMK AO2
KHAF 231440Z AUTO 00000KT 10SM CLR 04/02 A3042 RMK AO2
KHAF 231435Z AUTO 00000KT 10SM CLR 04/02 A3042 RMK AO2
KHAF 231420Z AUTO 00000KT 10SM CLR 04/02 A3041 RMK AO2
KHAF 231415Z AUTO 00000KT 10SM CLR 05/02 A3041 RMK AO2
KHAF 231355Z AUTO 00000KT 10SM CLR 05/03 A3040 RMK AO2
KHAF 231340Z AUTO 00000KT 10SM FEW003 04/02 A3041 RMK AO2
KHAF 231335Z AUTO 00000KT 10SM FEW003 05/03 A3041 RMK AO2
KHAF 231320Z AUTO 00000KT 10SM SCT003 03/01 A3042 RMK AO2
KHAF 231315Z AUTO 00000KT 10SM FEW003 04/02 A3042 RMK AO2
KHAF 231300Z AUTO 00000KT 10SM FEW003 03/02 A3042 RMK AO2
KHAF 231255Z AUTO 00000KT 10SM FEW003 04/02 A3042 RMK AO2
KHAF 231235Z AUTO 02003KT 10SM CLR 04/02 A3042 RMK AO2
KHAF 231215Z AUTO 00000KT 10SM CLR 04/01 A3042 RMK AO2
KHAF 231200Z AUTO 00000KT 10SM CLR 05/02 A3042 RMK AO2
KHAF 231155Z AUTO 00000KT 10SM CLR 05/02 A3042 RMK AO2
KHAF 231140Z AUTO 03004KT 10SM CLR 04/02 A3042 RMK AO2
KHAF 231135Z AUTO 00000KT 10SM CLR 04/01 A3042 RMK AO2
KHAF 231115Z AUTO 00000KT 10SM CLR 03/02 A3042 RMK AO2
KHAF 231100Z AUTO 00000KT 10SM CLR 04/02 A3042 RMK AO2
KHAF 231055Z AUTO 01003KT 10SM CLR 03/01 A3042 RMK AO2
KHAF 231040Z AUTO 00000KT 10SM CLR 05/01 A3043 RMK AO2
KHAF 231035Z AUTO 00000KT 10SM CLR 04/02 A3043 RMK AO2
KHAF 231015Z AUTO 00000KT 10SM CLR 04/01 A3043 RMK AO2
KHAF 230955Z AUTO 00000KT 10SM CLR 03/01 A3043 RMK AO2
KHAF 230940Z AUTO 00000KT 10SM CLR 03/02 A3043 RMK AO2
KHAF 230935Z AUTO 00000KT 10SM CLR 03/02 A3043 RMK AO2
KHAF 230920Z AUTO 03003KT 10SM CLR 04/02 A3043 RMK AO2
KHAF 230915Z AUTO 00000KT 10SM CLR 03/02 A3043 RMK AO2
KHAF 230855Z AUTO 03003KT 10SM CLR 04/02 A3043 RMK AO2
KHAF 230840Z AUTO 00000KT 10SM CLR 04/02 A3044 RMK AO2
KHAF 230835Z AUTO 00000KT 10SM CLR 04/02 A3043 RMK AO2
KHAF 230820Z AUTO 00000KT 10SM CLR 04/02 A3043 RMK AO2
KHAF 230815Z AUTO 00000KT 10SM FEW003 03/01 A3043 RMK AO2
KHAF 230755Z AUTO 04003KT 10SM SCT003 04/02 A3043 RMK AO2
KHAF 230735Z AUTO 00000KT 10SM CLR 05/02 A3043 RMK AO2
KHAF 230720Z AUTO 00000KT 10SM CLR 05/02 A3043 RMK AO2
KHAF 230715Z AUTO 00000KT 10SM CLR 06/02 A3043 RMK AO2
KHAF 230700Z AUTO 00000KT 10SM CLR 06/02 A3042 RMK AO2
KHAF 230655Z AUTO 00000KT 10SM CLR 06/02 A3043 RMK AO2
KHAF 230635Z AUTO 09003KT 10SM CLR 06/02 A3042 RMK AO2
KHAF 230620Z AUTO 03004KT 10SM CLR 06/02 A3042 RMK AO2
KHAF 230615Z AUTO 03003KT 10SM CLR 06/02 A3042 RMK AO2
KHAF 230600Z AUTO 01003KT 10SM CLR 05/02 A3041 RMK AO2
KHAF 230555Z AUTO 00000KT 10SM CLR 05/02 A3041 RMK AO2
KHAF 230535Z AUTO 00000KT 10SM CLR 06/02 A3041 RMK AO2
KHAF 230515Z AUTO 00000KT 10SM CLR 07/02 A3041 RMK AO2
KHAF 230500Z AUTO 00000KT 10SM CLR 07/02 A3041 RMK AO2
KHAF 230455Z AUTO 00000KT 10SM CLR 07/02 A3041 RMK AO2
KHAF 230440Z AUTO 06004KT 10SM CLR 07/02 A3041 RMK AO2
KHAF 230435Z AUTO 05003KT 10SM CLR 07/02 A3041 RMK AO2
KHAF 230415Z AUTO 00000KT 10SM FEW002 07/03 A3041 RMK AO2
KHAF 230400Z AUTO 36004KT 10SM CLR 07/03 A3041 RMK AO2
KHAF 230355Z AUTO 01004KT 10SM CLR 07/02 A3041 RMK AO2
KHAF 230335Z AUTO 03004KT 10SM CLR 07/02 A3041 RMK AO2
KHAF 230320Z AUTO 00000KT 10SM FEW003 07/03 A3040 RMK AO2
KHAF 230315Z AUTO 36004KT 10SM FEW003 08/03 A3039 RMK AO2
KHAF 230255Z AUTO 01004KT 10SM SCT003 08/04 A3039 RMK AO2
KHAF 230235Z AUTO 36003KT 9SM BKN003 09/05 A3039 RMK AO2
KHAF 230220Z AUTO 01004KT 8SM BKN003 10/06 A3039 RMK AO2
KHAF 230215Z AUTO 01005KT 8SM BKN003 10/05 A3039 RMK AO2
KHAF 230200Z AUTO 01003KT 7SM BKN003 10/07 A3039 RMK AO2
KHAF 230155Z AUTO 35004KT 7SM BKN003 10/07 A3039 RMK AO2
KHAF 230135Z AUTO 00000KT 8SM CLR 11/07 A3038 RMK AO2
KHAF 230115Z AUTO 33006KT 8SM CLR 12/07 A3038 RMK AO2
KHAF 230100Z AUTO 32007KT 8SM CLR 12/07 A3038 RMK AO2
KHAF 230055Z AUTO 33007KT 9SM CLR 12/07 A3038 RMK AO2
KHAF 230035Z AUTO 33009KT 9SM CLR 13/07 A3038 RMK AO2
KHAF 230020Z AUTO 33009KT 9SM CLR 13/07 A3039 RMK AO2
KHAF 230015Z AUTO 32009KT 9SM CLR 13/07 A3039 RMK AO2
KHAF 222355Z AUTO 31009KT 10SM CLR 13/06 A3039 RMK AO2
KHAF 222340Z AUTO 32008KT 10SM CLR 13/03 A3039 RMK AO2
KHAF 222335Z AUTO 31009KT 10SM CLR 14/04 A3039 RMK AO2
KHAF 222320Z AUTO 32008KT 10SM CLR 14/02 A3038 RMK AO2
KHAF 222315Z AUTO 32009KT 10SM CLR 14/02 A3038 RMK AO2
KHAF 222255Z AUTO 32008KT 9SM CLR 14/03 A3038 RMK AO2
KHAF 222235Z AUTO 32007KT 10SM CLR 14/02 A3038 RMK AO2
KHAF 222220Z AUTO 31009KT 10SM CLR 14/03 A3038 RMK AO2
KHAF 222215Z AUTO 32008KT 9SM CLR 14/02 A3038 RMK AO2
KHAF 222200Z AUTO 32009KT 10SM CLR 14/03 A3038 RMK AO2
KHAF 222155Z AUTO 32009KT 10SM CLR 14/02 A3038 RMK AO2
KHAF 222135Z AUTO 32011KT 9SM CLR 14/02 A3038 RMK AO2
KHAF 222120Z AUTO 32008KT 9SM CLR 14/02 A3038 RMK AO2
KHAF 222115Z AUTO 32009KT 9SM CLR 14/01 A3038 RMK AO2
KHAF 222100Z AUTO 32011KT 9SM CLR 14/01 A3039 RMK AO2
KHAF 222055Z AUTO 32011KT 10SM CLR 14/02 A3039 RMK AO2
KHAF 222035Z AUTO 32011KT 9SM CLR 14/02 A3040 RMK AO2
KHAF 222015Z AUTO 02006KT 10SM CLR 14/M01 A3040 RMK AO2
KHAF 222000Z AUTO 06009KT 010V070 9SM CLR 14/00 A3041 RMK AO2
KHAF 221955Z AUTO 02007KT 9SM CLR 14/00 A3041 RMK AO2
KHAF 221940Z AUTO 35008KT 10SM CLR 14/00 A3042 RMK AO2
KHAF 221935Z AUTO 34010KT 10SM CLR 14/00 A3042 RMK AO2
KHAF 221915Z AUTO 36007KT 10SM CLR 14/M01 A3042 RMK AO2
KHAF 221855Z AUTO 01007KT 10SM CLR 13/M01 A3042 RMK AO2
KHAF 221840Z AUTO 02010KT 10SM CLR 13/M01 A3043 RMK AO2
KHAF 221835Z AUTO 02010KT 9SM CLR 13/M01 A3043 RMK AO2
KHAF 221820Z AUTO 36008KT 9SM CLR 13/M01 A3043 RMK AO2
KHAF 221815Z AUTO 35007KT 9SM CLR 12/M01 A3043 RMK AO2
KHAF 221755Z AUTO 34003KT 10SM CLR 12/M03 A3043 RMK AO2
KHAF 221735Z AUTO 00000KT 10SM CLR 12/M02 A3042 RMK AO2
No TAF found for KHAF